GOOY/DKR METAR and TAF weather

Enter ICAO airport designator
Station Type Date Time Source
GOOY METAR 2018/07/20 12:00 UTC NOAA

GOOY 201200Z 36006KT 9999 FEW015 29/23 Q1015


Station Type Date Time Source
GOOY Decoded METAR 2018/07/20 12:00 UTC NOAA

Dakar / Yoff, Senegal (GOOY) 14-44N 017-30W 24M
Jul 20, 2018 - 08:00 AM EDT / 2018.07.20 1200 UTC
Wind: from the N (360 degrees) at 7 MPH (6 KT):0
Visibility: greater than 7 mile(s):0
Sky conditions: mostly clear
Temperature: 84 F (29 C)
Dew Point: 73 F (23 C)
Relative Humidity: 70%
Pressure (altimeter): 29.97 in. Hg (1015 hPa)
ob: GOOY 201200Z 36006KT 9999 FEW015 29/23 Q1015
cycle: 12

Station Type Date Time Source
GOOY TAF 2018/07/20 12:30 UTC NOAA

TAF GOOY 201130Z 2012/2118 28008KT 9999 SCT013 PROB30
TEMPO 2015/2019 4500 TSRA BKN012 FEW0130CB


Example: see airport list